Terminal Aerodrome Forecast
Issued by NWS Melbourne, FL

Current Version | Previous Version | Text Only | Print | Product List | Glossary On
Versions: 1 2 3 4 5 6 7 8 9 10 11 12 13
000
FTUS42 KMLB 012300
TAFVRB
TAF
KVRB 012332Z 0200/0224 VRB04KT P6SM BKN250
     FM020400 13003KT P6SM VCSH SCT020
     FM021500 08008KT P6SM VCTS SCT030CB SCT080 SCT250
     FM022100 09010KT P6SM SCT040 BKN080 BKN250=

USA.gov is the U.S. government's official web portal to all federal, state and local government web resources and services.